Barksdale Air Force Base
KBAD : now visible

Airfield :











YOU CAN JOIN US ON...

 
LOGIN :

Register | Disclaimer

   EN    FR    IT 

 









Legend :    VFR   Marginal VFR   IFR   Intensive IFR   Very Intensive IFR
Visi :
Ceiling :
>= 8 km
>= 3000ft
5 to 8 km
1000 to 3000 ft
1500m to 5 km
500 to 1000 ft
800 to 1500m
200 to 500 ft
< 800m
< 200 ft
Symbols :   Thunderstorms  Fog  Heavy snow  Heavy precipitations  Wind > 20 kt







- Airport Elevation : 166 ft


KBAD - Barksdale Air Force Base

CURRENT METAR :
  • 210656Z AUTO 00000KT 10SM CLR 03/03 A3003 RMK AO2 SLP173 T00260026

EXPIRED METARs :
  • 210556Z AUTO 00000KT 10SM CLR 03/03 A3003 RMK AO2 SLP173 60000 T00280028 10108 20028 401290028 51005
  • 210456Z AUTO 00000KT 10SM CLR 03/03 A3003 RMK AO2 SLPNO T00340034

TAF TAF KBAD
Valid from the 21 at 02:00 until the 22 at 08:00 UTC


210200Z 2102/2208 06010KT 9999 FEW150 QNH3000INS
BECMG 2115/2116 07014G20KT 9999 BKN050 QNH3003INS
BECMG 2119/2120 04012G18KT 8000 -SHRA VCTS OVC015CB QNH3000INS
BECMG 2200/2201 06012KT 9999 NSW OVC007 QNH3000INS TX09/2118Z TN04/2112Z
KZFW FIR / North America



MET'MAP, your aeronautical weather chart ! - Copyright ORBIFLY December 2007 - Disclaimer

ORBIFLY MET'MAP TEAM :

Programming & Development : Alexandra Zaïnal
Concept & Development : Baudouin d'Aumeries
Co-Development & Prog : Marc-Olivier Méhu
Technical & hardware support : Manuel Goepfert

Contact : metmap@orbifly.com




SOURCES & CREDITS :

   NOAA       Earth
Advisory